Changzhou, China
Current Conditions -  °F | °C
As of 10:00 AM on Sunday 21 Dec 2014 (Local Time) from ZSNJ Reporting Station
Clear Clear  
Wind Chill: 34°   Ceiling: Unl
Heat Index: 39°   Visibility: 6mi
Dew Point: 18°   Wind: 7mph
Humidity: 42%   Direction: 310°NW
Pressure: 30.5"   Gusts: NA
Location:  31.78°N, 119.97°E
Report Text: ZSNJ 210200Z 31003MPS 270V350 CAVOK 04/M08 Q1033 NOSIG
Loading
Personal Weather Stations






























Interactive Weather Map New forecast layout! Learn more

10-Day Weather Forecast

Advertisements
Track Severe Weather on mobile